Time;durP1;ratioP1;P1;durP2;ratioP2;P2;SDS_P1;SDS_P2;PMS_P1;PMS_P2;Temp;Humidity;BMP_temperature;BMP_pressure;BME280_temperature;BME280_humidity;BME280_pressure;Samples;Min_cycle;Max_cycle;Signal;HPM_P1;HPM_P2
2023/07/09 00:00:13;;;;;;;2.85;2.30;;;22.00;99.90;;;;;;5012549;28;20045;-38
2023/07/09 00:02:39;;;;;;;3.55;2.10;;;22.00;99.90;;;;;;5012438;28;20072;-41
2023/07/09 00:05:09;;;;;;;3.53;2.40;;;22.00;99.90;;;;;;5013095;28;20058;-40
2023/07/09 00:07:34;;;;;;;4.00;2.42;;;22.00;99.90;;;;;;5012314;28;20033;-39
2023/07/09 00:10:00;;;;;;;3.92;2.13;;;22.00;99.90;;;;;;5012532;28;20393;-39
2023/07/09 00:12:26;;;;;;;3.05;2.13;;;22.00;99.90;;;;;;5012502;28;20108;-40
2023/07/09 00:14:52;;;;;;;6.53;2.53;;;22.00;99.90;;;;;;5012477;28;20029;-40
2023/07/09 00:17:25;;;;;;;2.72;1.98;;;22.00;99.90;;;;;;5012285;28;20074;-40
2023/07/09 00:19:51;;;;;;;3.28;2.13;;;22.00;99.90;;;;;;5012196;28;20042;-40
2023/07/09 00:22:18;;;;;;;4.70;2.30;;;22.00;99.90;;;;;;5012724;28;20102;-40
2023/07/09 00:24:51;;;;;;;2.95;2.08;;;22.00;99.90;;;;;;5012023;28;20026;-40
2023/07/09 00:27:19;;;;;;;3.65;2.20;;;22.00;99.90;;;;;;5012123;28;20105;-40
2023/07/09 00:29:45;;;;;;;3.97;2.22;;;22.00;99.90;;;;;;5011715;28;20040;-40
2023/07/09 00:32:16;;;;;;;2.65;1.83;;;22.00;99.90;;;;;;5011667;28;20109;-39
2023/07/09 00:34:48;;;;;;;4.45;2.13;;;22.00;99.90;;;;;;5011855;28;20026;-40
2023/07/09 00:37:15;;;;;;;3.25;2.13;;;22.00;99.90;;;;;;5012273;28;20017;-40
2023/07/09 00:39:41;;;;;;;4.88;2.30;;;22.00;99.90;;;;;;5011513;28;20069;-40
2023/07/09 00:42:18;;;;;;;4.22;2.10;;;22.00;99.90;;;;;;4994451;28;20033;-40
2023/07/09 00:44:54;;;;;;;2.63;2.10;;;22.00;99.90;;;;;;5011617;28;20552;-40
2023/07/09 00:47:49;;;;;;;3.42;2.38;;;22.00;99.90;;;;;;5011662;28;20030;-39
2023/07/09 00:50:21;;;;;;;;;;;22.00;99.90;;;;;;5011870;28;20026;-39
2023/07/09 00:52:54;;;;;;;3.95;2.35;;;22.00;99.90;;;;;;5011648;28;19920;-39
2023/07/09 00:55:24;;;;;;;3.65;2.63;;;22.00;99.90;;;;;;4994192;28;20089;-40
2023/07/09 00:57:57;;;;;;;3.75;2.33;;;22.00;99.90;;;;;;5011923;28;20037;-38
2023/07/09 01:00:28;;;;;;;3.58;2.17;;;21.90;99.90;;;;;;5011517;28;20042;-39
2023/07/09 01:02:55;;;;;;;5.13;2.40;;;21.90;99.90;;;;;;5011583;28;20023;-40
2023/07/09 01:05:21;;;;;;;3.40;2.13;;;22.00;99.90;;;;;;5011944;28;20535;-40
2023/07/09 01:07:48;;;;;;;3.45;2.22;;;21.90;99.90;;;;;;5011483;28;20120;-39
2023/07/09 01:10:15;;;;;;;4.47;2.22;;;22.00;99.90;;;;;;5011598;28;20114;-40
2023/07/09 01:12:42;;;;;;;3.55;2.30;;;21.90;99.90;;;;;;5011821;28;20030;-40
2023/07/09 01:15:08;;;;;;;4.82;2.60;;;21.90;99.90;;;;;;5012048;28;20018;-39
2023/07/09 01:17:34;;;;;;;3.58;2.25;;;21.90;99.90;;;;;;5011586;28;20026;-40
2023/07/09 01:20:00;;;;;;;5.50;2.75;;;22.00;99.90;;;;;;5011142;28;20053;-40
2023/07/09 01:22:27;;;;;;;5.10;2.30;;;21.90;99.90;;;;;;5011335;28;20394;-40
2023/07/09 01:25:04;;;;;;;3.20;2.50;;;21.90;99.90;;;;;;5012154;28;20029;-40
2023/07/09 01:27:37;;;;;;;4.22;2.33;;;22.00;99.90;;;;;;5011711;28;20076;-39
2023/07/09 01:30:26;;;;;;;4.97;2.63;;;21.90;99.90;;;;;;5011333;28;20514;-40
2023/07/09 01:32:55;;;;;;;5.88;2.50;;;21.90;99.90;;;;;;5011455;28;20062;-40
2023/07/09 01:35:22;;;;;;;3.25;2.03;;;22.00;99.90;;;;;;4993527;28;20095;-40
2023/07/09 01:37:48;;;;;;;4.00;2.20;;;22.00;99.90;;;;;;5011808;28;20477;-39
2023/07/09 01:40:18;;;;;;;6.82;2.40;;;21.90;99.90;;;;;;5011215;28;20050;-40
2023/07/09 01:42:44;;;;;;;3.70;2.17;;;21.90;99.90;;;;;;5012432;28;20037;-40
2023/07/09 01:45:11;;;;;;;4.95;2.40;;;21.90;99.90;;;;;;5015067;28;20029;-39
2023/07/09 01:47:37;;;;;;;3.85;2.28;;;21.90;99.90;;;;;;5014931;28;20030;-39
2023/07/09 01:50:05;;;;;;;4.90;2.30;;;21.90;99.90;;;;;;5015079;28;20458;-39
2023/07/09 01:52:32;;;;;;;4.35;2.40;;;22.00;99.90;;;;;;5015222;28;20385;-40
2023/07/09 01:54:58;;;;;;;5.97;2.60;;;21.90;99.90;;;;;;5014811;28;20029;-41
2023/07/09 01:57:32;;;;;;;3.40;2.30;;;21.90;99.90;;;;;;5015569;28;20022;-40
2023/07/09 01:59:59;;;;;;;4.65;2.50;;;21.90;99.90;;;;;;5014472;28;20068;-41
2023/07/09 02:02:26;;;;;;;8.43;2.72;;;21.90;99.90;;;;;;5015153;28;20489;-39
2023/07/09 02:04:53;;;;;;;2.80;2.35;;;21.90;99.90;;;;;;5014605;28;20091;-40
2023/07/09 02:07:21;;;;;;;3.70;2.60;;;21.90;99.90;;;;;;5014708;28;20503;-40
2023/07/09 02:09:47;;;;;;;3.08;2.03;;;21.90;99.90;;;;;;5014600;28;20469;-40
2023/07/09 02:12:15;;;;;;;4.93;2.80;;;21.90;99.90;;;;;;5014757;28;20040;-40
2023/07/09 02:14:41;;;;;;;4.63;2.35;;;21.90;99.90;;;;;;4996736;28;20332;-39
2023/07/09 02:17:08;;;;;;;4.20;2.60;;;21.90;99.90;;;;;;5014847;28;20022;-40
2023/07/09 02:19:34;;;;;;;5.35;2.38;;;21.90;99.90;;;;;;5014593;28;20182;-39
2023/07/09 02:21:59;;;;;;;5.72;2.70;;;21.90;99.90;;;;;;5014462;28;20113;-41
2023/07/09 02:24:26;;;;;;;4.53;2.72;;;21.90;99.90;;;;;;5014510;28;20030;-40
2023/07/09 02:26:53;;;;;;;3.78;2.28;;;21.90;99.90;;;;;;5014370;28;20022;-40
2023/07/09 02:29:19;;;;;;;5.25;2.50;;;21.90;99.90;;;;;;5014551;28;20493;-38
2023/07/09 02:31:45;;;;;;;4.03;2.67;;;21.90;99.90;;;;;;5014260;28;20034;-40
2023/07/09 02:34:11;;;;;;;3.80;2.45;;;21.90;99.90;;;;;;5015297;28;20122;-40
2023/07/09 02:36:36;;;;;;;4.03;2.20;;;21.90;99.90;;;;;;5014332;28;20054;-40
2023/07/09 02:39:02;;;;;;;3.90;2.15;;;21.90;99.90;;;;;;5014031;28;20033;-38
2023/07/09 02:41:28;;;;;;;3.88;2.15;;;21.90;99.90;;;;;;5014384;28;20072;-39
2023/07/09 02:43:53;;;;;;;2.95;2.33;;;21.90;99.90;;;;;;5014236;28;20041;-40
2023/07/09 02:46:19;;;;;;;3.67;2.10;;;21.90;99.90;;;;;;5014409;28;20037;-38
2023/07/09 02:48:45;;;;;;;3.42;2.40;;;21.90;99.90;;;;;;5013886;28;20030;-40
2023/07/09 02:51:10;;;;;;;4.60;2.70;;;21.90;99.90;;;;;;5014546;28;20124;-39
2023/07/09 02:53:36;;;;;;;3.65;2.40;;;21.90;99.90;;;;;;5014425;28;20029;-38
2023/07/09 02:56:01;;;;;;;6.10;2.60;;;21.90;99.90;;;;;;5013241;28;20366;-37
2023/07/09 02:58:27;;;;;;;3.90;2.20;;;21.90;99.90;;;;;;5013639;28;20025;-40
2023/07/09 03:00:53;;;;;;;3.58;2.70;;;21.90;99.90;;;;;;5013486;28;20109;-42
2023/07/09 03:03:20;;;;;;;3.17;2.15;;;21.90;99.90;;;;;;4996236;28;20118;-41
2023/07/09 03:05:47;;;;;;;3.72;2.50;;;21.90;99.90;;;;;;5014622;28;20021;-40
2023/07/09 03:08:13;;;;;;;4.25;2.42;;;21.90;99.90;;;;;;5013810;28;20029;-40
2023/07/09 03:10:39;;;;;;;3.65;2.53;;;21.90;99.90;;;;;;5013271;28;20030;-39
2023/07/09 03:13:05;;;;;;;3.67;2.80;;;21.90;99.90;;;;;;5013987;28;20103;-40
2023/07/09 03:15:31;;;;;;;3.88;2.42;;;21.90;99.90;;;;;;5013478;28;20022;-39
2023/07/09 03:17:57;;;;;;;5.25;2.75;;;21.90;99.90;;;;;;5013682;28;20033;-42
2023/07/09 03:20:22;;;;;;;4.30;2.35;;;21.90;99.90;;;;;;5012918;28;20405;-39
2023/07/09 03:22:48;;;;;;;4.00;2.70;;;21.90;99.90;;;;;;5013247;28;20510;-42
2023/07/09 03:25:14;;;;;;;4.15;2.60;;;21.90;99.90;;;;;;4995764;28;20091;-39
2023/07/09 03:27:39;;;;;;;3.40;2.35;;;21.90;99.90;;;;;;5013062;28;20042;-40
2023/07/09 03:30:06;;;;;;;4.25;2.47;;;21.80;99.90;;;;;;5012854;28;20022;-40
2023/07/09 03:32:32;;;;;;;3.88;2.70;;;21.90;99.90;;;;;;5012978;28;20033;-41
2023/07/09 03:34:57;;;;;;;3.10;2.40;;;21.80;99.90;;;;;;5012952;28;20022;-40
2023/07/09 03:37:23;;;;;;;3.35;2.13;;;21.90;99.90;;;;;;5012996;28;20022;-39
2023/07/09 03:39:48;;;;;;;4.22;2.70;;;21.90;99.90;;;;;;5013364;28;20079;-40
2023/07/09 03:42:14;;;;;;;5.28;2.80;;;21.90;99.90;;;;;;5012761;28;20030;-40
2023/07/09 03:44:40;;;;;;;3.60;2.22;;;21.90;99.90;;;;;;5013056;28;20474;-39
2023/07/09 03:47:06;;;;;;;3.17;2.53;;;21.80;99.90;;;;;;5012707;28;20033;-39
2023/07/09 03:49:32;;;;;;;3.72;2.65;;;21.80;99.90;;;;;;5012559;28;20030;-40
2023/07/09 03:51:58;;;;;;;5.32;2.90;;;21.90;99.90;;;;;;5012827;28;20045;-38
2023/07/09 03:54:24;;;;;;;4.80;2.50;;;21.90;99.90;;;;;;5012920;28;20036;-41
2023/07/09 03:56:49;;;;;;;4.57;2.72;;;21.80;99.90;;;;;;5013315;28;20037;-39
2023/07/09 03:59:15;;;;;;;4.32;2.40;;;21.80;99.90;;;;;;5012943;28;20009;-41
2023/07/09 04:01:45;;;;;;;3.25;2.47;;;21.80;99.90;;;;;;5012544;28;20029;-40
2023/07/09 04:04:12;;;;;;;3.92;2.78;;;21.80;99.90;;;;;;5013162;28;20065;-40
2023/07/09 04:06:37;;;;;;;3.40;2.40;;;21.80;99.90;;;;;;5013230;28;20037;-39
2023/07/09 04:09:03;;;;;;;3.92;2.75;;;21.80;99.90;;;;;;5012256;28;20033;-40
2023/07/09 04:11:29;;;;;;;4.10;2.55;;;21.80;99.90;;;;;;5012212;28;20037;-42
2023/07/09 04:13:54;;;;;;;3.75;2.85;;;21.80;99.90;;;;;;5012245;28;20029;-40
2023/07/09 04:16:20;;;;;;;5.10;2.70;;;21.80;99.90;;;;;;5012706;28;20030;-41
2023/07/09 04:18:45;;;;;;;3.45;2.65;;;21.80;99.90;;;;;;5012224;28;20421;-39
2023/07/09 04:21:11;;;;;;;4.20;2.75;;;21.80;99.90;;;;;;5012556;28;20183;-42
2023/07/09 04:23:37;;;;;;;4.10;2.40;;;21.80;99.90;;;;;;5012489;28;20056;-39
2023/07/09 04:26:03;;;;;;;4.07;2.47;;;21.80;99.90;;;;;;5012204;28;20052;-40
2023/07/09 04:28:30;;;;;;;4.18;2.80;;;21.80;99.90;;;;;;5012279;28;20025;-40
2023/07/09 04:30:56;;;;;;;5.80;2.83;;;21.80;99.90;;;;;;5012066;28;20026;-39
2023/07/09 04:33:22;;;;;;;5.38;2.53;;;21.80;99.90;;;;;;5011858;28;20032;-38
2023/07/09 04:35:48;;;;;;;3.40;2.38;;;21.80;99.90;;;;;;5012430;28;20026;-42
2023/07/09 04:38:14;;;;;;;3.80;2.63;;;21.80;99.90;;;;;;5012379;28;20037;-40
2023/07/09 04:40:41;;;;;;;3.55;2.65;;;21.80;99.90;;;;;;5012182;28;20030;-39
2023/07/09 04:43:06;;;;;;;3.50;2.60;;;21.80;99.90;;;;;;5012154;28;20057;-40
2023/07/09 04:45:32;;;;;;;3.50;2.25;;;21.80;99.90;;;;;;5012032;28;20077;-40
2023/07/09 04:47:58;;;;;;;4.00;2.72;;;21.80;99.90;;;;;;5011807;28;20443;-37
2023/07/09 04:50:23;;;;;;;4.15;2.63;;;21.80;99.90;;;;;;5011720;28;20061;-40
2023/07/09 04:52:49;;;;;;;3.78;2.70;;;21.80;99.90;;;;;;5011626;28;20037;-41
2023/07/09 04:55:15;;;;;;;3.65;2.60;;;21.80;99.90;;;;;;5012141;28;20026;-40
2023/07/09 04:57:40;;;;;;;4.72;2.60;;;21.80;99.90;;;;;;5012029;28;20050;-39
2023/07/09 05:00:07;;;;;;;5.45;2.42;;;21.80;99.90;;;;;;5011422;28;20021;-39
2023/07/09 05:02:33;;;;;;;3.40;2.60;;;21.80;99.90;;;;;;5011745;28;20026;-41
2023/07/09 05:04:59;;;;;;;4.57;2.80;;;21.80;99.90;;;;;;5011885;28;20105;-39
2023/07/09 05:07:25;;;;;;;5.07;2.80;;;21.80;99.90;;;;;;5011439;28;20060;-40
2023/07/09 05:09:50;;;;;;;3.63;2.65;;;21.80;99.90;;;;;;5011504;28;20038;-40
2023/07/09 05:12:16;;;;;;;3.30;2.45;;;21.80;99.90;;;;;;5011809;28;20112;-39
2023/07/09 05:14:42;;;;;;;4.10;2.65;;;21.80;99.90;;;;;;5011944;28;20022;-39
2023/07/09 05:17:07;;;;;;;2.83;2.35;;;21.80;99.90;;;;;;5012646;28;20500;-38
2023/07/09 05:19:33;;;;;;;3.88;2.33;;;21.80;99.90;;;;;;5017628;28;20397;-41
2023/07/09 05:21:59;;;;;;;3.90;2.70;;;21.80;99.90;;;;;;5017921;28;20022;-42
2023/07/09 05:24:25;;;;;;;3.72;2.42;;;21.80;99.90;;;;;;5017772;28;20116;-39
2023/07/09 05:26:50;;;;;;;4.65;2.60;;;21.80;99.90;;;;;;5018387;28;20133;-40
2023/07/09 05:29:16;;;;;;;5.13;2.67;;;21.80;99.90;;;;;;5017929;28;20022;-39
2023/07/09 05:31:42;;;;;;;3.65;2.58;;;21.80;99.90;;;;;;5018498;28;20050;-39
2023/07/09 05:34:08;;;;;;;3.72;2.88;;;21.80;99.90;;;;;;5018091;28;20381;-40
2023/07/09 05:36:33;;;;;;;4.28;2.80;;;21.80;99.90;;;;;;5018217;28;20029;-39
2023/07/09 05:38:59;;;;;;;3.45;2.55;;;21.80;99.90;;;;;;5018067;28;20026;-39
2023/07/09 05:41:25;;;;;;;3.83;2.58;;;21.80;99.90;;;;;;5017677;28;20448;-40
2023/07/09 05:43:52;;;;;;;5.00;2.70;;;21.80;99.90;;;;;;5018589;28;20030;-39
2023/07/09 05:46:18;;;;;;;5.38;2.58;;;21.80;99.90;;;;;;5018438;28;20101;-40
2023/07/09 05:48:44;;;;;;;4.07;2.70;;;21.80;99.90;;;;;;5017807;28;20074;-40
2023/07/09 05:51:10;;;;;;;4.82;2.88;;;21.80;99.90;;;;;;5018142;28;20481;-41
2023/07/09 05:53:35;;;;;;;3.50;2.55;;;21.80;99.90;;;;;;5018317;28;20022;-39
2023/07/09 05:56:01;;;;;;;4.97;2.58;;;21.80;99.90;;;;;;5017691;28;20029;-38
2023/07/09 05:58:27;;;;;;;5.40;2.60;;;21.80;99.90;;;;;;5017795;28;20026;-40
2023/07/09 06:00:54;;;;;;;3.97;2.60;;;21.80;99.90;;;;;;5017347;28;20026;-39
2023/07/09 06:03:21;;;;;;;3.42;2.70;;;21.80;99.90;;;;;;5017846;28;20474;-40
2023/07/09 06:05:49;;;;;;;4.93;2.90;;;21.80;99.90;;;;;;5017465;28;20062;-38
2023/07/09 06:08:16;;;;;;;5.30;2.55;;;21.80;99.90;;;;;;5018012;28;20080;-39
2023/07/09 06:10:55;;;;;;;3.25;2.30;;;21.80;99.90;;;;;;5017162;28;20381;-38
2023/07/09 06:13:23;;;;;;;3.72;2.72;;;21.80;99.90;;;;;;5017369;28;20116;-39
2023/07/09 06:15:52;;;;;;;3.00;2.20;;;21.80;99.90;;;;;;5017437;28;20033;-39
2023/07/09 06:18:19;;;;;;;4.50;2.80;;;21.80;99.90;;;;;;5017313;28;20508;-39
2023/07/09 06:20:52;;;;;;;4.70;3.03;;;21.80;99.90;;;;;;5017513;28;20041;-39
2023/07/09 06:23:19;;;;;;;5.55;2.80;;;21.80;99.90;;;;;;5017467;28;20056;-39
2023/07/09 06:25:48;;;;;;;3.67;2.47;;;21.80;99.90;;;;;;4999718;28;20478;-38
2023/07/09 06:28:20;;;;;;;3.88;2.70;;;21.80;99.90;;;;;;5017525;28;20026;-39
2023/07/09 06:30:47;;;;;;;4.10;2.20;;;21.80;99.90;;;;;;5013120;28;20029;-39
2023/07/09 06:33:14;;;;;;;4.57;2.30;;;21.70;99.90;;;;;;5014054;28;20065;-39
2023/07/09 06:35:45;;;;;;;3.03;2.42;;;21.80;99.90;;;;;;5014468;28;20050;-40
2023/07/09 06:38:11;;;;;;;2.67;2.05;;;21.80;99.90;;;;;;4996486;28;20018;-41
2023/07/09 06:40:37;;;;;;;2.95;2.20;;;21.80;99.90;;;;;;5015198;28;20048;-40
2023/07/09 06:43:02;;;;;;;4.10;2.45;;;21.80;99.90;;;;;;5014872;28;20029;-39
2023/07/09 06:45:28;;;;;;;4.05;2.50;;;21.80;99.90;;;;;;5014515;28;20022;-40
2023/07/09 06:47:54;;;;;;;3.30;2.60;;;21.80;99.90;;;;;;5014989;28;20030;-40
2023/07/09 06:50:20;;;;;;;2.80;2.33;;;21.80;99.90;;;;;;5014026;28;20405;-40
2023/07/09 06:52:46;;;;;;;2.45;1.95;;;21.80;99.90;;;;;;5014321;28;20405;-40
2023/07/09 06:55:12;;;;;;;2.88;2.30;;;21.80;99.90;;;;;;5014015;28;20033;-40
2023/07/09 06:57:37;;;;;;;3.78;2.30;;;21.80;99.90;;;;;;5013844;28;20077;-40
2023/07/09 07:00:04;;;;;;;3.03;2.40;;;21.80;99.90;;;;;;5013518;28;20018;-39
2023/07/09 07:02:30;;;;;;;3.60;2.40;;;21.80;99.90;;;;;;5013706;28;20470;-38
2023/07/09 07:04:55;;;;;;;3.67;2.25;;;21.80;99.90;;;;;;5013997;28;20037;-38
2023/07/09 07:07:21;;;;;;;2.88;2.17;;;21.80;99.90;;;;;;5013628;28;20033;-39
2023/07/09 07:09:47;;;;;;;3.13;2.10;;;21.80;99.90;;;;;;5013378;28;20037;-39
2023/07/09 07:12:24;;;;;;;2.72;2.20;;;21.80;99.90;;;;;;5013483;28;20053;-39
2023/07/09 07:14:50;;;;;;;2.97;2.13;;;21.80;99.90;;;;;;5014187;28;20068;-40
2023/07/09 07:17:15;;;;;;;4.25;2.40;;;21.80;99.90;;;;;;5014223;28;20414;-38
2023/07/09 07:19:41;;;;;;;2.55;2.25;;;21.80;99.90;;;;;;5013208;28;20113;-40
2023/07/09 07:22:07;;;;;;;4.05;2.03;;;21.80;99.90;;;;;;5013325;28;20085;-39
2023/07/09 07:24:33;;;;;;;2.60;2.00;;;21.80;99.90;;;;;;5013439;28;20026;-39
2023/07/09 07:26:58;;;;;;;3.38;2.30;;;21.80;99.90;;;;;;5014088;28;20026;-40
2023/07/09 07:29:24;;;;;;;2.15;1.92;;;21.80;99.90;;;;;;5012940;28;20031;-38
2023/07/09 07:31:50;;;;;;;2.83;1.98;;;21.80;99.90;;;;;;5013060;28;20041;-40
2023/07/09 07:34:15;;;;;;;3.55;2.17;;;21.80;99.90;;;;;;5013388;28;20034;-40
2023/07/09 07:36:41;;;;;;;4.25;2.10;;;21.80;99.90;;;;;;5013182;28;20018;-39
2023/07/09 07:39:06;;;;;;;3.42;2.38;;;21.80;99.90;;;;;;5012966;28;20436;-39
2023/07/09 07:41:32;;;;;;;3.03;2.10;;;21.80;99.90;;;;;;5012826;28;20049;-40
2023/07/09 07:43:58;;;;;;;2.55;2.10;;;21.80;99.90;;;;;;5012838;28;20110;-39
2023/07/09 07:46:23;;;;;;;2.55;2.10;;;21.80;99.90;;;;;;5013270;28;20477;-40
2023/07/09 07:48:49;;;;;;;2.28;1.90;;;21.80;99.90;;;;;;5012911;28;20021;-40
2023/07/09 07:51:15;;;;;;;2.70;1.80;;;21.80;99.90;;;;;;5013003;28;20030;-41
2023/07/09 07:53:40;;;;;;;3.35;2.10;;;21.80;99.90;;;;;;5012772;28;20030;-39
2023/07/09 07:56:07;;;;;;;2.72;2.22;;;21.80;99.90;;;;;;5012941;28;20030;-39
2023/07/09 07:58:32;;;;;;;2.95;2.05;;;21.80;99.90;;;;;;5012448;28;20108;-39
2023/07/09 08:00:59;;;;;;;3.58;2.05;;;21.80;99.90;;;;;;5012555;28;20050;-40
2023/07/09 08:03:25;;;;;;;3.25;2.28;;;21.80;99.90;;;;;;5012455;28;20033;-39
2023/07/09 08:05:51;;;;;;;3.53;1.90;;;21.80;99.90;;;;;;5012460;28;20030;-39
2023/07/09 08:08:17;;;;;;;2.50;2.00;;;21.80;99.90;;;;;;5012444;28;20037;-39
2023/07/09 08:10:43;;;;;;;2.78;1.80;;;21.80;99.90;;;;;;5012679;28;20430;-41
2023/07/09 08:13:09;;;;;;;3.13;1.95;;;21.90;99.90;;;;;;5012372;28;20032;-40
2023/07/09 08:15:35;;;;;;;3.05;2.10;;;21.90;99.90;;;;;;5012261;28;20025;-39
2023/07/09 08:18:01;;;;;;;2.67;2.10;;;21.90;99.90;;;;;;5012292;28;20026;-41
2023/07/09 08:20:26;;;;;;;3.40;2.20;;;21.80;99.90;;;;;;5012440;28;20038;-40
2023/07/09 08:22:52;;;;;;;2.38;1.70;;;21.90;99.90;;;;;;5012309;28;20500;-41
2023/07/09 08:25:18;;;;;;;2.35;1.88;;;21.90;99.90;;;;;;5012170;28;20029;-38
2023/07/09 08:27:43;;;;;;;2.95;2.00;;;21.90;99.90;;;;;;4995118;28;20276;-39
2023/07/09 08:30:09;;;;;;;4.07;2.47;;;21.90;99.90;;;;;;5012010;28;20045;-40
2023/07/09 08:32:35;;;;;;;2.42;1.90;;;21.90;99.90;;;;;;5012179;28;20034;-39
2023/07/09 08:35:01;;;;;;;2.53;2.10;;;21.90;99.90;;;;;;5011882;28;20033;-40
2023/07/09 08:37:26;;;;;;;4.40;2.17;;;21.90;99.90;;;;;;5011901;28;20025;-39
2023/07/09 08:39:52;;;;;;;2.90;2.05;;;21.90;99.90;;;;;;5011867;28;20022;-38
2023/07/09 08:42:28;;;;;;;2.38;1.88;;;21.90;99.90;;;;;;5011893;28;20038;-39
2023/07/09 08:45:03;;;;;;;2.63;2.20;;;21.90;99.90;;;;;;5011788;28;20030;-40
2023/07/09 08:47:59;;;;;;;2.55;2.10;;;21.90;99.90;;;;;;5012046;28;20101;-40
2023/07/09 08:50:37;;;;;;;3.28;2.10;;;21.90;99.90;;;;;;5000978;28;20050;-39
2023/07/09 08:53:05;;;;;;;3.28;2.20;;;21.90;99.90;;;;;;5011095;28;20481;-41
2023/07/09 08:55:39;;;;;;;4.43;2.08;;;21.90;99.90;;;;;;5011659;28;20022;-39
2023/07/09 08:58:11;;;;;;;2.90;1.85;;;21.90;99.90;;;;;;5011685;28;20076;-40
2023/07/09 09:00:53;;;;;;;2.78;2.13;;;21.90;99.90;;;;;;5011568;28;20022;-39
2023/07/09 09:03:35;;;;;;;3.47;1.90;;;21.90;99.90;;;;;;5011977;28;20332;-38
2023/07/09 09:06:01;;;;;;;3.40;2.28;;;21.90;99.90;;;;;;5011549;28;20099;-40
2023/07/09 09:08:36;;;;;;;2.60;1.90;;;21.90;99.90;;;;;;5011636;28;20623;-39
2023/07/09 09:11:14;;;;;;;2.50;1.95;;;22.00;99.90;;;;;;5011554;28;20029;-38
2023/07/09 09:13:41;;;;;;;3.65;2.20;;;21.90;99.90;;;;;;5011465;28;20141;-41
2023/07/09 09:16:17;;;;;;;2.10;1.80;;;21.90;99.90;;;;;;5011491;28;20063;-39
2023/07/09 09:18:45;;;;;;;3.80;1.98;;;21.90;99.90;;;;;;5011419;28;20034;-40
2023/07/09 09:21:25;;;;;;;2.33;1.65;;;21.90;99.90;;;;;;5011275;28;20030;-40
2023/07/09 09:23:55;;;;;;;2.58;1.98;;;22.00;99.90;;;;;;5011642;28;20054;-40
2023/07/09 09:26:31;;;;;;;2.20;1.65;;;21.90;99.90;;;;;;5011461;28;20417;-40
2023/07/09 09:28:57;;;;;;;3.00;1.85;;;21.90;99.90;;;;;;5011264;28;20487;-40
2023/07/09 09:31:26;;;;;;;3.08;2.10;;;21.90;99.90;;;;;;5011211;28;20108;-39
2023/07/09 09:33:52;;;;;;;2.70;2.20;;;21.90;99.90;;;;;;5011198;28;20026;-39
2023/07/09 09:36:26;;;;;;;2.95;2.17;;;21.90;99.90;;;;;;5011206;28;20026;-38
2023/07/09 09:38:52;;;;;;;2.30;1.80;;;22.00;99.90;;;;;;4993681;28;20389;-39
2023/07/09 09:41:29;;;;;;;3.33;1.88;;;22.00;99.90;;;;;;5011173;28;20087;-38
2023/07/09 09:43:56;;;;;;;3.75;2.05;;;22.00;99.90;;;;;;5011199;28;20018;-39
2023/07/09 09:46:27;;;;;;;3.20;2.30;;;22.00;99.90;;;;;;5011241;28;20026;-39
2023/07/09 09:48:59;;;;;;;2.47;1.90;;;22.00;99.90;;;;;;5010911;28;20486;-39
2023/07/09 09:51:26;;;;;;;3.88;2.30;;;22.10;99.90;;;;;;5011059;28;20451;-40
2023/07/09 09:54:00;;;;;;;3.45;2.03;;;22.10;99.90;;;;;;5011246;28;20030;-40
2023/07/09 09:56:36;;;;;;;2.65;2.00;;;22.10;99.90;;;;;;5011086;28;20026;-40
2023/07/09 09:59:03;;;;;;;3.55;1.80;;;22.10;99.90;;;;;;5011443;28;20028;-39
2023/07/09 10:01:32;;;;;;;2.63;1.95;;;22.10;99.90;;;;;;5011062;28;20030;-38
2023/07/09 10:03:59;;;;;;;2.40;1.90;;;22.10;99.90;;;;;;5012431;28;20053;-41
2023/07/09 10:06:36;;;;;;;4.25;2.05;;;22.10;99.90;;;;;;5014997;28;20084;-38
2023/07/09 10:09:27;;;;;;;3.10;2.03;;;22.10;99.90;;;;;;5014554;28;20026;-41
2023/07/09 10:12:08;;;;;;;2.42;1.83;;;22.10;99.90;;;;;;5014475;28;20029;-40
2023/07/09 10:14:42;;;;;;;2.13;1.90;;;22.20;99.90;;;;;;5014382;28;20355;-40
2023/07/09 10:17:31;;;;;;;3.15;2.00;;;22.20;99.90;;;;;;5014827;28;20022;-40
2023/07/09 10:20:06;;;;;;;3.03;2.30;;;22.20;99.90;;;;;;5014092;28;20037;-40
2023/07/09 10:22:44;;;;;;;2.75;2.10;;;22.20;99.90;;;;;;5014433;28;20087;-40
2023/07/09 10:25:37;;;;;;;2.47;2.00;;;22.20;99.90;;;;;;5014367;28;20030;-39
2023/07/09 10:28:35;;;;;;;2.88;1.92;;;22.20;99.90;;;;;;5014369;28;20109;-39
2023/07/09 10:31:42;;;;;;;3.05;2.28;;;22.30;99.90;;;;;;5014035;28;20036;-39
2023/07/09 10:34:17;;;;;;;2.45;2.08;;;22.30;99.90;;;;;;4996738;28;20045;-40
2023/07/09 10:36:51;;;;;;;3.25;2.10;;;22.30;99.90;;;;;;5014024;28;20055;-39
2023/07/09 10:39:27;;;;;;;2.38;1.83;;;22.30;99.90;;;;;;5014027;28;20090;-39
2023/07/09 10:41:57;;;;;;;3.08;1.90;;;22.20;99.90;;;;;;5013988;28;20022;-39
2023/07/09 10:44:31;;;;;;;2.92;1.90;;;22.20;99.90;;;;;;5014125;28;20387;-40
2023/07/09 10:47:03;;;;;;;4.05;2.08;;;22.20;99.90;;;;;;5013909;28;20400;-39
2023/07/09 10:49:36;;;;;;;2.97;1.95;;;22.20;99.90;;;;;;5013596;28;20030;-40
2023/07/09 10:52:13;;;;;;;2.95;1.80;;;22.20;99.90;;;;;;5014107;28;20030;-39
2023/07/09 10:55:08;;;;;;;2.78;1.83;;;22.20;99.90;;;;;;5014123;28;20049;-39
2023/07/09 10:58:00;;;;;;;3.08;1.98;;;22.20;99.90;;;;;;5013637;28;20026;-42
2023/07/09 11:00:38;;;;;;;3.35;2.10;;;22.20;99.90;;;;;;5013743;28;20018;-40
2023/07/09 11:03:28;;;;;;;3.05;1.90;;;22.20;99.90;;;;;;5013730;28;20033;-38
2023/07/09 11:05:54;;;;;;;3.72;1.95;;;22.30;99.90;;;;;;5013531;28;20099;-39
2023/07/09 11:08:30;;;;;;;3.70;1.75;;;22.30;99.90;;;;;;5013628;28;20413;-40
2023/07/09 11:11:00;;;;;;;2.80;2.15;;;22.30;99.90;;;;;;5013392;28;20330;-39
2023/07/09 11:13:33;;;;;;;3.75;1.73;;;22.30;99.90;;;;;;5013380;28;20026;-38
2023/07/09 11:16:00;;;;;;;3.20;2.00;;;22.30;99.90;;;;;;5012879;28;20061;-40
2023/07/09 11:18:33;;;;;;;2.72;1.90;;;22.30;99.90;;;;;;5013210;28;20018;-40
2023/07/09 11:21:13;;;;;;;3.22;2.03;;;22.40;99.90;;;;;;5013295;28;20440;-39
2023/07/09 11:23:55;;;;;;;2.85;2.03;;;22.40;99.90;;;;;;5013475;28;20030;-41
2023/07/09 11:26:29;;;;;;;3.28;2.15;;;22.40;99.90;;;;;;5013279;28;20018;-40
2023/07/09 11:28:56;;;;;;;2.80;1.90;;;22.40;99.90;;;;;;5012968;28;20026;-40
2023/07/09 11:31:44;;;;;;;2.15;1.95;;;22.40;99.90;;;;;;5013002;28;20100;-40
2023/07/09 11:34:19;;;;;;;3.45;1.75;;;22.40;99.90;;;;;;5013082;28;20026;-40
2023/07/09 11:36:54;;;;;;;3.33;1.80;;;22.40;99.90;;;;;;5013112;28;20122;-39
2023/07/09 11:39:42;;;;;;;2.95;2.20;;;22.40;99.90;;;;;;5012758;28;20026;-38
2023/07/09 11:43:00;;;;;;;4.28;2.03;;;22.40;99.90;;;;;;5012890;28;20022;-40
2023/07/09 11:45:30;;;;;;;3.17;2.00;;;22.40;99.90;;;;;;4932949;29;20036;-40
2023/07/09 11:48:17;;;;;;;3.58;2.05;;;22.40;99.90;;;;;;5008285;28;20099;-39
2023/07/09 11:50:47;;;;;;;5.82;1.85;;;22.50;99.90;;;;;;5012486;28;20569;-39
2023/07/09 11:53:36;;;;;;;3.97;2.17;;;22.50;99.90;;;;;;5012633;28;20029;-40
2023/07/09 11:56:02;;;;;;;3.17;2.10;;;22.50;99.90;;;;;;5012651;28;20398;-38
2023/07/09 11:58:28;;;;;;;2.92;1.88;;;22.50;99.90;;;;;;5012658;28;20026;-39
2023/07/09 12:00:58;;;;;;;3.92;2.25;;;22.50;99.90;;;;;;5012454;28;20026;-40
2023/07/09 12:03:27;;;;;;;3.45;1.90;;;22.50;99.90;;;;;;5012314;28;20029;-39
2023/07/09 12:06:19;;;;;;;2.95;2.00;;;22.50;99.90;;;;;;5012451;28;20065;-40
2023/07/09 12:08:46;;;;;;;4.18;2.17;;;22.50;99.90;;;;;;5011677;28;20038;-38
2023/07/09 12:11:33;;;;;;;3.10;2.10;;;22.50;99.90;;;;;;5012250;28;20034;-39
2023/07/09 12:14:10;;;;;;;2.60;1.70;;;22.50;99.90;;;;;;5012212;28;20135;-40
2023/07/09 12:16:39;;;;;;;3.95;2.25;;;22.50;99.90;;;;;;4994569;28;20448;-40
2023/07/09 12:19:06;;;;;;;4.50;2.15;;;22.50;99.90;;;;;;5011857;28;20053;-40
2023/07/09 12:21:36;;;;;;;3.47;2.10;;;22.50;99.90;;;;;;5012480;28;20381;-37
2023/07/09 12:24:02;;;;;;;4.78;2.10;;;22.50;99.90;;;;;;5012240;28;20021;-40
2023/07/09 12:26:31;;;;;;;2.72;2.15;;;22.50;99.90;;;;;;5011775;28;20396;-40
2023/07/09 12:28:58;;;;;;;2.58;2.10;;;22.50;99.90;;;;;;5011339;28;20543;-40
2023/07/09 12:31:30;;;;;;;4.70;2.00;;;22.50;99.90;;;;;;5011800;28;20038;-42
2023/07/09 12:33:57;;;;;;;3.03;1.92;;;22.60;99.90;;;;;;5011967;28;20106;-39
2023/07/09 12:36:27;;;;;;;4.10;2.08;;;22.50;99.90;;;;;;5012041;28;20032;-37
2023/07/09 12:38:57;;;;;;;3.10;1.90;;;22.60;99.90;;;;;;5012055;28;20022;-40
2023/07/09 12:41:26;;;;;;;3.72;2.17;;;22.50;99.90;;;;;;5011805;28;20385;-40
2023/07/09 12:43:53;;;;;;;3.60;2.10;;;22.50;99.90;;;;;;5011680;28;20030;-40
2023/07/09 12:46:21;;;;;;;2.97;2.00;;;22.50;99.90;;;;;;5011874;28;20033;-41
2023/07/09 12:48:46;;;;;;;2.25;1.90;;;22.50;99.90;;;;;;5011752;28;20025;-40
2023/07/09 12:51:27;;;;;;;3.25;2.03;;;22.50;99.90;;;;;;5012191;28;20022;-39
2023/07/09 12:54:14;;;;;;;3.22;1.90;;;22.50;99.90;;;;;;5011699;28;20389;-38
2023/07/09 12:56:40;;;;;;;2.78;1.83;;;22.50;99.90;;;;;;5011797;28;20026;-39
2023/07/09 12:59:19;;;;;;;4.78;2.13;;;22.50;99.90;;;;;;5011480;28;20022;-40